createdAt,value
2018-02-17T14:30:35.583Z,8.30
2018-02-17T14:32:39.104Z,9.23
2018-02-17T14:34:42.607Z,7.53
2018-02-17T14:36:46.166Z,8.80
2018-02-17T14:38:49.655Z,7.17
2018-02-17T14:40:53.968Z,7.90
2018-02-17T14:42:57.540Z,7.63
2018-02-17T14:45:01.040Z,7.30
2018-02-17T14:47:04.513Z,8.53
2018-02-17T14:49:08.065Z,8.40
2018-02-17T14:51:11.779Z,8.83
2018-02-17T14:53:15.274Z,8.87
2018-02-17T14:55:18.890Z,8.00
2018-02-17T14:57:22.438Z,7.77
2018-02-17T14:59:25.957Z,7.73
2018-02-17T15:01:29.503Z,8.10
2018-02-17T15:03:33.815Z,7.93
2018-02-17T15:05:38.124Z,8.87
2018-02-17T15:07:41.664Z,8.90
2018-02-17T15:09:45.212Z,9.87
2018-02-17T15:11:49.522Z,9.20
2018-02-17T15:13:53.031Z,10.20
2018-02-17T15:15:57.388Z,10.40
2018-02-17T15:18:00.863Z,11.90
2018-02-17T15:20:05.666Z,11.30
2018-02-17T15:22:09.237Z,11.57
2018-02-17T15:24:12.782Z,11.77
2018-02-17T15:26:16.287Z,12.13
2018-02-17T15:28:19.779Z,12.47
2018-02-17T15:30:23.457Z,10.63
2018-02-17T15:32:27.725Z,9.60
2018-02-17T15:34:31.246Z,12.00
2018-02-17T15:36:35.604Z,11.07
2018-02-17T15:38:39.156Z,13.10
2018-02-17T15:40:42.645Z,13.07
2018-02-17T15:42:47.041Z,13.43
2018-02-17T15:44:50.626Z,13.87
2018-02-17T15:46:54.172Z,12.87
2018-02-17T15:48:58.512Z,12.60
2018-02-17T15:51:02.027Z,12.17
2018-02-17T15:53:05.527Z,13.87
2018-02-17T15:55:09.074Z,13.13
2018-02-17T15:57:13.387Z,13.77
2018-02-17T15:59:17.669Z,13.13
2018-02-17T16:01:21.191Z,14.93
2018-02-17T16:03:25.538Z,14.17
2018-02-17T16:05:29.010Z,13.53
2018-02-17T16:07:32.523Z,14.57
2018-02-17T16:09:36.098Z,13.53
2018-02-17T16:11:40.479Z,9.27
2018-02-17T16:13:44.012Z,10.33
2018-02-17T16:15:48.346Z,9.20
2018-02-17T16:17:52.687Z,12.47
2018-02-17T16:19:56.260Z,11.13
2018-02-17T16:21:59.831Z,12.40
2018-02-17T16:24:03.339Z,13.00
2018-02-17T16:26:06.834Z,12.07
2018-02-17T16:28:10.363Z,12.00
2018-02-17T16:30:13.883Z,12.33
2018-02-17T16:32:17.382Z,12.03
2018-02-17T16:34:20.918Z,13.47
2018-02-17T16:36:24.430Z,11.00
2018-02-17T16:38:27.922Z,11.03
2018-02-17T16:40:31.473Z,12.20
2018-02-17T16:42:35.762Z,12.13
2018-02-17T16:44:39.274Z,13.50
2018-02-17T16:46:43.590Z,11.90
2018-02-17T16:48:47.894Z,10.27
2018-02-17T16:50:51.414Z,12.10
2018-02-17T16:52:54.983Z,13.37
2018-02-17T16:54:58.476Z,12.60
2018-02-17T16:57:02.768Z,12.83
2018-02-17T16:59:06.308Z,13.37
2018-02-17T17:01:10.568Z,12.33
2018-02-17T17:03:14.127Z,13.00
2018-02-17T17:05:17.703Z,13.27
2018-02-17T17:07:22.022Z,11.67
2018-02-17T17:09:26.306Z,9.77
2018-02-17T17:11:30.197Z,11.00
2018-02-17T17:13:33.810Z,11.00
2018-02-17T17:15:38.160Z,12.07
2018-02-17T17:17:41.744Z,12.10
2018-02-17T17:19:45.243Z,15.03
2018-02-17T17:21:48.761Z,15.70
2018-02-17T17:23:52.319Z,16.07
2018-02-17T17:25:56.597Z,16.80
2018-02-17T17:28:00.096Z,16.77
2018-02-17T17:30:03.696Z,17.30
2018-02-17T17:32:07.244Z,17.27
2018-02-17T17:34:10.726Z,17.30
2018-02-17T17:36:15.031Z,18.50
2018-02-17T17:38:19.332Z,18.63
2018-02-17T17:40:23.640Z,20.00
2018-02-17T17:42:27.177Z,19.73
2018-02-17T17:44:30.780Z,20.47
2018-02-17T17:46:35.056Z,24.30
2018-02-17T17:48:39.386Z,21.17
2018-02-17T17:50:43.707Z,21.77
2018-02-17T17:52:47.192Z,20.57
2018-02-17T17:54:51.555Z,21.20
2018-02-17T17:56:55.092Z,21.30
2018-02-17T17:58:59.330Z,21.63
2018-02-17T18:01:02.834Z,22.90
2018-02-17T18:03:06.398Z,21.33
2018-02-17T18:05:10.667Z,22.07
2018-02-17T18:07:14.191Z,22.80
2018-02-17T18:09:18.534Z,21.80
2018-02-17T18:11:22.824Z,22.00
2018-02-17T18:13:26.382Z,21.13
2018-02-17T18:15:29.874Z,22.13
2018-02-17T18:17:33.445Z,22.20
2018-02-17T18:19:37.006Z,21.43
2018-02-17T18:21:41.259Z,22.97
2018-02-17T18:23:44.778Z,22.27
2018-02-17T18:25:48.337Z,22.47
2018-02-17T18:27:51.833Z,21.53
2018-02-17T18:29:55.387Z,22.20
2018-02-17T18:31:58.990Z,23.93
2018-02-17T18:34:02.499Z,23.10
2018-02-17T18:36:06.769Z,22.73
2018-02-17T18:38:10.352Z,23.40
2018-02-17T18:40:13.902Z,23.03
2018-02-17T18:42:17.457Z,25.13
2018-02-17T18:44:21.059Z,25.97
2018-02-17T18:46:24.611Z,28.13
2018-02-17T18:48:28.151Z,27.97
2018-02-17T18:50:31.693Z,29.23
2018-02-17T18:52:35.268Z,29.13
2018-02-17T18:54:38.806Z,33.47
2018-02-17T18:56:42.331Z,32.27
2018-02-17T18:58:45.842Z,30.60
2018-02-17T19:00:49.391Z,28.67
2018-02-17T19:02:52.923Z,28.17
2018-02-17T19:04:56.524Z,28.33
2018-02-17T19:07:00.163Z,35.27
2018-02-17T19:09:03.797Z,35.60
2018-02-17T19:11:07.448Z,32.73
2018-02-17T19:13:11.062Z,30.17
2018-02-17T19:15:14.675Z,29.33
2018-02-17T19:17:18.193Z,27.63
2018-02-17T19:19:22.556Z,28.93
2018-02-17T19:21:26.885Z,28.57
2018-02-17T19:23:30.379Z,36.63
2018-02-17T19:25:33.938Z,29.60
2018-02-17T19:27:38.249Z,33.17
2018-02-17T19:29:42.577Z,32.10
2018-02-17T19:31:46.204Z,34.17
2018-02-17T19:33:49.736Z,33.10
2018-02-17T19:35:53.284Z,40.20
2018-02-17T19:37:56.885Z,38.00
2018-02-17T19:40:00.436Z,41.70
2018-02-17T19:42:03.945Z,38.97
2018-02-17T19:44:08.250Z,34.40
2018-02-17T19:46:12.566Z,33.83
2018-02-17T19:48:16.856Z,31.97
2018-02-17T19:50:20.416Z,29.73
2018-02-17T19:52:24.005Z,29.37
2018-02-17T19:54:27.508Z,29.77
2018-02-17T19:56:31.064Z,30.90
2018-02-17T19:58:34.608Z,30.40
2018-02-17T20:00:38.143Z,29.50
2018-02-17T20:02:42.491Z,33.37
2018-02-17T20:04:46.104Z,33.70
2018-02-17T20:06:49.647Z,36.23
2018-02-17T20:08:53.192Z,37.77
2018-02-17T20:10:56.753Z,39.17
2018-02-17T20:13:01.089Z,37.43
2018-02-17T20:15:04.991Z,33.92
2018-02-17T20:17:08.574Z,32.13
2018-02-17T20:19:12.867Z,29.37
2018-02-17T20:21:16.395Z,29.23
2018-02-17T20:23:19.933Z,29.83
2018-02-17T20:25:23.440Z,29.00
2018-02-17T20:27:27.750Z,32.10
2018-02-17T20:29:31.309Z,28.57
2018-02-17T20:31:34.891Z,28.83
2018-02-17T20:33:39.205Z,29.87
2018-02-17T20:35:43.851Z,30.47
2018-02-17T20:37:47.423Z,29.63
2018-02-17T20:39:51.735Z,32.77
2018-02-17T20:41:56.011Z,33.23
2018-02-17T20:43:59.568Z,35.63
2018-02-17T20:46:03.068Z,34.30
2018-02-17T20:48:06.633Z,33.50
2018-02-17T20:50:10.927Z,31.57
2018-02-17T20:52:15.188Z,32.77
2018-02-17T20:54:18.726Z,30.73
2018-02-17T20:56:22.275Z,33.27
2018-02-17T20:58:25.760Z,31.63
2018-02-17T21:00:29.260Z,31.97
2018-02-17T21:02:32.818Z,32.53
2018-02-17T21:04:37.122Z,33.07
2018-02-17T21:06:40.667Z,35.90
2018-02-17T21:08:44.157Z,33.20
2018-02-17T21:10:47.660Z,33.43
2018-02-17T21:12:51.223Z,30.23
2018-02-17T21:14:54.797Z,30.63
2018-02-17T21:16:58.325Z,33.53
2018-02-17T21:19:01.916Z,34.47
2018-02-17T21:21:05.474Z,34.83
2018-02-17T21:23:09.704Z,33.87
2018-02-17T21:25:14.058Z,33.60
2018-02-17T21:27:17.591Z,34.33
2018-02-17T21:29:21.117Z,34.27
2018-02-17T21:31:25.426Z,34.40
2018-02-17T21:33:29.665Z,33.53
2018-02-17T21:35:33.204Z,33.70
2018-02-17T21:37:36.745Z,32.97
2018-02-17T21:39:40.245Z,34.10
2018-02-17T21:41:43.834Z,33.13
2018-02-17T21:43:47.330Z,37.60
2018-02-17T21:45:50.877Z,36.57
2018-02-17T21:47:54.467Z,34.73
2018-02-17T21:49:57.972Z,34.40
2018-02-17T21:52:01.540Z,33.00
2018-02-17T21:54:05.112Z,31.17
2018-02-17T21:56:09.443Z,31.67
2018-02-17T21:58:12.976Z,30.07
2018-02-17T22:00:17.357Z,30.63
2018-02-17T22:02:20.879Z,32.23
2018-02-17T22:04:25.193Z,30.07
2018-02-17T22:06:29.546Z,32.13
2018-02-17T22:08:33.847Z,30.88
2018-02-17T22:10:37.357Z,27.53
2018-02-17T22:12:40.925Z,33.15
2018-02-17T22:14:44.427Z,33.20
2018-02-17T22:16:48.738Z,33.83
2018-02-17T22:18:53.084Z,31.47
2018-02-17T22:20:56.623Z,30.70
2018-02-17T22:23:00.121Z,33.07
2018-02-17T22:25:03.737Z,40.67
2018-02-17T22:27:07.242Z,35.17
2018-02-17T22:29:10.738Z,32.63
2018-02-17T22:31:15.075Z,33.20
2018-02-17T22:33:18.631Z,31.53
2018-02-17T22:35:22.172Z,30.00
2018-02-17T22:37:25.709Z,31.77
2018-02-17T22:39:29.207Z,35.80
2018-02-17T22:41:32.734Z,38.50
2018-02-17T22:43:37.044Z,41.40
2018-02-17T22:45:41.388Z,43.00
2018-02-17T22:47:44.982Z,44.25
2018-02-17T22:49:48.581Z,47.60
2018-02-17T22:51:52.111Z,48.87
2018-02-17T22:53:56.432Z,48.65
2018-02-17T22:56:00.026Z,49.17
2018-02-17T22:58:03.543Z,42.60
2018-02-17T23:00:07.826Z,38.17
2018-02-17T23:02:11.376Z,39.53
2018-02-17T23:04:14.919Z,39.33
2018-02-17T23:06:18.412Z,37.50
2018-02-17T23:08:21.974Z,38.67
2018-02-17T23:10:25.466Z,36.60
2018-02-17T23:12:28.956Z,38.60
2018-02-17T23:14:32.559Z,37.63
2018-02-17T23:16:36.107Z,39.20
2018-02-17T23:18:39.614Z,39.88
2018-02-17T23:20:43.262Z,38.70
2018-02-17T23:22:47.608Z,36.28
2018-02-17T23:24:51.206Z,36.70
2018-02-17T23:26:54.772Z,36.97
2018-02-17T23:28:58.330Z,36.33
2018-02-17T23:31:01.873Z,38.03
2018-02-17T23:33:05.451Z,37.83
2018-02-17T23:35:08.976Z,39.92
2018-02-17T23:37:12.530Z,40.38
2018-02-17T23:39:16.033Z,36.22
2018-02-17T23:41:19.563Z,36.38
2018-02-17T23:43:23.165Z,38.42
2018-02-17T23:45:26.701Z,36.30
2018-02-17T23:47:30.236Z,39.30
2018-02-17T23:49:33.806Z,39.17
2018-02-17T23:51:37.379Z,41.42
2018-02-17T23:53:40.873Z,40.95
2018-02-17T23:55:45.172Z,39.67
2018-02-17T23:57:49.490Z,40.13
2018-02-17T23:59:52.997Z,38.60
